Time;durP1;ratioP1;P1;durP2;ratioP2;P2;SDS_P1;SDS_P2;PMS_P1;PMS_P2;Temp;Humidity;BMP_temperature;BMP_pressure;BME280_temperature;BME280_humidity;BME280_pressure;Samples;Min_cycle;Max_cycle;Signal;HPM_P1;HPM_P2
2023/03/29 00:00:19;;;;;;;6.28;2.03;;;6.40;99.90;;;;;;5053775;28;20040;-72
2023/03/29 00:02:47;;;;;;;4.45;2.10;;;6.40;99.90;;;;;;5074084;28;20131;-72
2023/03/29 00:05:14;;;;;;;4.70;2.00;;;6.30;99.90;;;;;;5053232;28;20040;-71
2023/03/29 00:07:40;;;;;;;6.63;2.40;;;6.40;99.90;;;;;;5070076;28;20063;-71
2023/03/29 00:10:08;;;;;;;6.20;2.20;;;6.40;99.90;;;;;;5052404;28;20029;-72
2023/03/29 00:12:35;;;;;;;4.88;2.38;;;6.40;99.90;;;;;;5065583;28;20271;-72
2023/03/29 00:15:01;;;;;;;6.18;2.40;;;6.40;99.90;;;;;;5074115;28;20461;-71
2023/03/29 00:17:27;;;;;;;4.82;2.25;;;6.40;99.90;;;;;;5053496;28;20060;-71
2023/03/29 00:19:53;;;;;;;5.80;2.40;;;6.40;99.90;;;;;;5054101;28;20048;-71
2023/03/29 00:22:19;;;;;;;3.75;2.10;;;6.40;99.90;;;;;;5053308;28;20503;-72
2023/03/29 00:24:46;;;;;;;7.45;3.00;;;6.40;99.90;;;;;;5073596;28;20044;-71
2023/03/29 00:27:12;;;;;;;5.57;2.33;;;6.40;99.90;;;;;;5072663;28;20446;-71
2023/03/29 00:29:38;;;;;;;6.50;2.70;;;6.40;99.90;;;;;;5055741;28;20044;-72
2023/03/29 00:32:03;;;;;;;6.45;2.30;;;6.40;99.90;;;;;;5073568;28;20146;-71
2023/03/29 00:34:34;;;;;;;6.22;2.30;;;6.40;99.90;;;;;;5073423;28;20040;-71
2023/03/29 00:37:00;;;;;;;8.15;2.28;;;6.30;99.90;;;;;;5054872;28;20037;-71
2023/03/29 00:39:26;;;;;;;5.00;2.70;;;6.40;99.90;;;;;;5044914;28;20033;-71
2023/03/29 00:41:53;;;;;;;5.90;3.28;;;6.30;99.90;;;;;;5053664;28;20485;-71
2023/03/29 00:44:56;;;;;;;6.32;2.40;;;6.40;99.90;;;;;;5036628;28;20041;-71
2023/03/29 00:47:42;;;;;;;5.93;2.35;;;6.30;99.90;;;;;;5036799;28;20037;-71
2023/03/29 00:50:24;;;;;;;6.55;2.30;;;6.40;99.90;;;;;;5036474;28;20140;-71
2023/03/29 00:52:56;;;;;;;5.10;2.53;;;6.40;99.90;;;;;;5086833;28;20073;-71
2023/03/29 00:55:24;;;;;;;6.10;2.55;;;6.40;99.90;;;;;;5036216;28;20103;-71
2023/03/29 00:57:52;;;;;;;6.65;2.47;;;6.30;99.90;;;;;;5053310;28;20033;-71
2023/03/29 01:00:21;;;;;;;5.72;2.28;;;6.30;99.90;;;;;;5036165;28;20033;-71
2023/03/29 01:02:53;;;;;;;9.18;2.92;;;6.30;99.90;;;;;;5056446;28;20041;-71
2023/03/29 01:05:34;;;;;;;7.53;2.70;;;6.40;99.90;;;;;;5071670;28;20075;-71
2023/03/29 01:08:03;;;;;;;5.93;2.65;;;6.30;99.90;;;;;;5057144;28;20040;-71
2023/03/29 01:10:41;;;;;;;8.35;3.00;;;6.40;99.90;;;;;;5052402;28;20041;-71
2023/03/29 01:13:11;;;;;;;6.07;2.90;;;6.40;99.90;;;;;;5071792;28;20056;-71
2023/03/29 01:15:40;;;;;;;7.80;2.95;;;6.40;99.90;;;;;;5052908;28;20037;-71
2023/03/29 01:18:07;;;;;;;7.88;3.00;;;6.40;99.90;;;;;;5052849;28;20081;-71
2023/03/29 01:20:47;;;;;;;6.43;2.40;;;6.40;99.90;;;;;;5052296;28;20048;-71
2023/03/29 01:23:31;;;;;;;6.55;2.65;;;6.30;99.90;;;;;;5052686;28;20128;-71
2023/03/29 01:26:08;;;;;;;7.47;3.15;;;6.30;99.90;;;;;;5036118;28;20114;-71
2023/03/29 01:28:49;;;;;;;6.88;3.30;;;6.30;99.90;;;;;;5052508;28;20036;-71
2023/03/29 01:31:37;;;;;;;5.93;3.20;;;6.30;99.90;;;;;;5043314;28;20028;-71
2023/03/29 01:34:11;;;;;;;6.35;3.08;;;6.30;99.90;;;;;;5051634;28;20065;-71
2023/03/29 01:36:48;;;;;;;7.03;3.00;;;6.30;99.90;;;;;;5046184;28;20106;-71
2023/03/29 01:39:14;;;;;;;8.25;3.33;;;6.30;99.90;;;;;;5047915;28;20083;-71
2023/03/29 01:42:17;;;;;;;6.95;3.25;;;6.30;99.90;;;;;;5053116;28;20045;-71
2023/03/29 01:45:02;;;;;;;6.47;3.38;;;6.40;99.90;;;;;;5049873;28;20036;-72
2023/03/29 01:47:55;;;;;;;6.82;3.47;;;6.30;99.90;;;;;;5057029;28;20040;-72
2023/03/29 01:50:38;;;;;;;9.88;3.63;;;6.30;99.90;;;;;;5058933;28;20056;-72
2023/03/29 01:53:16;;;;;;;9.07;3.78;;;6.20;99.90;;;;;;5052866;28;20041;-71
2023/03/29 01:55:46;;;;;;;7.57;3.13;;;6.30;99.90;;;;;;5063140;28;20116;-71
2023/03/29 01:58:13;;;;;;;6.90;3.10;;;6.30;99.90;;;;;;5071082;28;20081;-71
2023/03/29 02:00:40;;;;;;;9.10;4.18;;;6.30;99.90;;;;;;5071064;28;20532;-71
2023/03/29 02:03:08;;;;;;;7.68;3.45;;;6.30;99.90;;;;;;5054419;28;20040;-71
2023/03/29 02:05:37;;;;;;;6.03;3.45;;;6.20;99.90;;;;;;5053093;28;20037;-71
2023/03/29 02:08:06;;;;;;;7.55;3.53;;;6.20;99.90;;;;;;5047406;28;20115;-71
2023/03/29 02:10:33;;;;;;;7.35;3.83;;;6.20;99.90;;;;;;5052124;28;20115;-71
2023/03/29 02:12:59;;;;;;;8.25;3.72;;;6.20;99.90;;;;;;5067882;28;20484;-72
2023/03/29 02:15:25;;;;;;;8.00;3.45;;;6.20;99.90;;;;;;5056559;28;20074;-71
2023/03/29 02:17:51;;;;;;;7.93;3.95;;;6.20;99.90;;;;;;5059227;28;20032;-71
2023/03/29 02:20:35;;;;;;;6.68;3.15;;;6.20;99.90;;;;;;5070841;28;20087;-72
2023/03/29 02:23:13;;;;;;;7.97;3.90;;;6.20;99.90;;;;;;5049721;28;20044;-72
2023/03/29 02:25:40;;;;;;;10.52;4.03;;;6.20;99.90;;;;;;5040368;28;20424;-72
2023/03/29 02:28:06;;;;;;;8.52;3.65;;;6.30;99.90;;;;;;5048770;28;20037;-71
2023/03/29 02:30:54;;;;;;;8.20;4.00;;;6.30;99.90;;;;;;5035878;28;20048;-71
2023/03/29 02:33:25;;;;;;;8.88;3.58;;;6.30;99.90;;;;;;5046322;28;20044;-72
2023/03/29 02:36:06;;;;;;;9.23;3.88;;;6.20;99.90;;;;;;5069931;28;20040;-71
2023/03/29 02:38:33;;;;;;;8.70;3.95;;;6.20;99.90;;;;;;5055565;28;20493;-71
2023/03/29 02:40:59;;;;;;;8.77;3.85;;;6.20;99.90;;;;;;5053951;28;20552;-71
2023/03/29 02:43:27;;;;;;;10.48;3.85;;;6.20;99.90;;;;;;5057225;28;20042;-72
2023/03/29 02:45:53;;;;;;;9.98;4.22;;;6.20;99.90;;;;;;5074772;28;20431;-71
2023/03/29 02:48:22;;;;;;;9.07;3.55;;;6.20;99.90;;;;;;5044414;28;20041;-71
2023/03/29 02:50:52;;;;;;;9.45;4.18;;;6.20;99.90;;;;;;5041849;28;20056;-72
2023/03/29 02:53:23;;;;;;;9.65;4.20;;;6.30;99.90;;;;;;5054763;28;20069;-71
2023/03/29 02:55:48;;;;;;;7.63;4.50;;;6.30;99.90;;;;;;5045891;28;20405;-72
2023/03/29 02:58:14;;;;;;;7.88;4.15;;;6.20;99.90;;;;;;5074475;28;20043;-71
2023/03/29 03:00:46;;;;;;;9.63;4.05;;;6.30;99.90;;;;;;5074378;28;20135;-71
2023/03/29 03:03:14;;;;;;;11.80;4.90;;;6.20;99.90;;;;;;5053920;28;20044;-72
2023/03/29 03:05:40;;;;;;;8.05;4.43;;;6.20;99.90;;;;;;5054032;28;20557;-72
2023/03/29 03:08:06;;;;;;;9.75;4.47;;;6.10;99.90;;;;;;5055131;28;20041;-71
2023/03/29 03:10:33;;;;;;;9.32;4.32;;;6.20;99.90;;;;;;5072121;28;20048;-71
2023/03/29 03:12:59;;;;;;;10.00;4.68;;;6.20;99.90;;;;;;5078872;28;20057;-72
2023/03/29 03:15:26;;;;;;;8.32;4.90;;;6.20;99.90;;;;;;5055241;28;20056;-71
2023/03/29 03:17:51;;;;;;;9.32;4.50;;;6.10;99.90;;;;;;5071062;28;20029;-71
2023/03/29 03:20:17;;;;;;;8.80;4.32;;;6.20;99.90;;;;;;5059215;28;20429;-71
2023/03/29 03:22:47;;;;;;;9.35;4.72;;;6.20;99.90;;;;;;5054369;28;20029;-71
2023/03/29 03:25:19;;;;;;;9.35;4.70;;;6.30;99.90;;;;;;5072342;28;20037;-71
2023/03/29 03:27:45;;;;;;;10.38;5.03;;;6.30;99.90;;;;;;5053124;28;20056;-71
2023/03/29 03:30:11;;;;;;;9.70;5.47;;;6.30;99.90;;;;;;5054751;28;20047;-72
2023/03/29 03:32:37;;;;;;;12.00;5.18;;;6.30;99.90;;;;;;5070763;28;20071;-72
2023/03/29 03:35:04;;;;;;;9.93;5.30;;;6.20;99.90;;;;;;5041164;28;20044;-71
2023/03/29 03:37:30;;;;;;;9.38;5.20;;;6.20;99.90;;;;;;5055457;28;20492;-71
2023/03/29 03:39:56;;;;;;;11.48;5.40;;;6.30;99.90;;;;;;5051158;28;20106;-71
2023/03/29 03:42:22;;;;;;;10.27;5.05;;;6.30;99.90;;;;;;5071319;28;20445;-72
2023/03/29 03:44:48;;;;;;;13.68;6.53;;;6.30;99.90;;;;;;5072187;28;20044;-71
2023/03/29 03:47:14;;;;;;;9.77;5.65;;;6.30;99.90;;;;;;5072804;28;20040;-71
2023/03/29 03:49:41;;;;;;;12.88;6.15;;;6.30;99.90;;;;;;5074232;28;20044;-71
2023/03/29 03:52:07;;;;;;;10.80;6.47;;;6.30;99.90;;;;;;5052385;28;20040;-71
2023/03/29 03:54:33;;;;;;;10.40;5.68;;;6.30;99.90;;;;;;5052365;28;20512;-71
2023/03/29 03:56:59;;;;;;;11.30;5.85;;;6.30;99.90;;;;;;5039056;28;20033;-71
2023/03/29 03:59:25;;;;;;;10.50;6.25;;;6.40;99.90;;;;;;5056663;28;20048;-71
2023/03/29 04:01:51;;;;;;;10.95;5.63;;;6.30;99.90;;;;;;5073065;28;20072;-71
2023/03/29 04:04:18;;;;;;;11.52;6.85;;;6.30;99.90;;;;;;5056496;28;20090;-71
2023/03/29 04:06:44;;;;;;;14.20;6.28;;;6.30;99.90;;;;;;5062774;28;20120;-71
2023/03/29 04:09:10;;;;;;;10.10;6.45;;;6.40;99.90;;;;;;5089452;28;20143;-71
2023/03/29 04:11:36;;;;;;;11.18;6.10;;;6.30;99.90;;;;;;5076154;28;20037;-71
2023/03/29 04:14:03;;;;;;;12.32;7.20;;;6.40;99.90;;;;;;5044797;28;20041;-72
2023/03/29 04:16:28;;;;;;;12.00;6.45;;;6.40;99.90;;;;;;5053864;28;20550;-71
2023/03/29 04:18:54;;;;;;;12.98;6.53;;;6.30;99.90;;;;;;5068612;28;20033;-71
2023/03/29 04:21:20;;;;;;;14.88;7.60;;;6.30;99.90;;;;;;5054086;28;20053;-71
2023/03/29 04:23:46;;;;;;;12.23;7.07;;;6.30;99.90;;;;;;5063434;28;20051;-71
2023/03/29 04:26:13;;;;;;;13.13;7.50;;;6.40;99.90;;;;;;5051336;28;20041;-72
2023/03/29 04:28:42;;;;;;;14.38;7.15;;;6.40;99.90;;;;;;5072512;28;20039;-72
2023/03/29 04:31:13;;;;;;;12.80;7.43;;;6.30;99.90;;;;;;5071642;28;20040;-72
2023/03/29 04:33:39;;;;;;;13.27;7.03;;;6.30;99.90;;;;;;5055500;28;20032;-72
2023/03/29 04:36:05;;;;;;;11.45;7.13;;;6.30;99.90;;;;;;5055053;28;20028;-72
2023/03/29 04:38:34;;;;;;;14.45;6.70;;;6.30;99.90;;;;;;5085274;28;20507;-72
2023/03/29 04:41:03;;;;;;;10.75;6.32;;;6.40;99.90;;;;;;5055260;28;20417;-72
2023/03/29 04:43:29;;;;;;;13.50;7.75;;;6.40;99.90;;;;;;5068129;28;20384;-72
2023/03/29 04:45:56;;;;;;;11.90;7.38;;;6.40;99.90;;;;;;5050718;28;20032;-72
2023/03/29 04:48:22;;;;;;;12.27;6.45;;;6.30;99.90;;;;;;5063837;28;20367;-71
2023/03/29 04:50:48;;;;;;;13.10;6.30;;;6.40;99.90;;;;;;5053096;28;20079;-72
2023/03/29 04:53:14;;;;;;;11.77;7.30;;;6.40;99.90;;;;;;5049176;28;20120;-72
2023/03/29 04:55:40;;;;;;;13.82;6.60;;;6.40;99.90;;;;;;5053912;28;20024;-72
2023/03/29 04:58:05;;;;;;;13.57;7.22;;;6.40;99.90;;;;;;5050704;28;20037;-72
2023/03/29 05:00:31;;;;;;;12.25;7.30;;;6.40;99.90;;;;;;5043669;28;20043;-72
2023/03/29 05:02:57;;;;;;;14.40;7.95;;;6.40;99.90;;;;;;5066754;28;20513;-71
2023/03/29 05:05:23;;;;;;;11.32;6.85;;;6.40;99.90;;;;;;5055523;28;20472;-72
2023/03/29 05:07:49;;;;;;;12.68;7.10;;;6.40;99.90;;;;;;5069804;28;20075;-72
2023/03/29 05:10:15;;;;;;;13.88;7.43;;;6.30;99.90;;;;;;5039604;28;20040;-72
2023/03/29 05:12:41;;;;;;;13.52;7.68;;;6.40;99.90;;;;;;5063357;28;20041;-72
2023/03/29 05:15:08;;;;;;;11.40;6.57;;;6.30;99.90;;;;;;5056790;28;20514;-71
2023/03/29 05:17:34;;;;;;;14.57;7.82;;;6.40;99.90;;;;;;5084936;28;20036;-72
2023/03/29 05:20:00;;;;;;;12.57;7.55;;;6.40;99.90;;;;;;5062885;28;20549;-72
2023/03/29 05:22:27;;;;;;;12.23;6.90;;;6.40;99.90;;;;;;5070057;28;20048;-72
2023/03/29 05:24:52;;;;;;;13.85;7.72;;;6.40;99.90;;;;;;5058236;28;20044;-72
2023/03/29 05:27:19;;;;;;;12.07;7.38;;;6.50;99.90;;;;;;5063156;28;20040;-72
2023/03/29 05:29:45;;;;;;;13.77;7.15;;;6.50;99.90;;;;;;5052385;28;20044;-72
2023/03/29 05:32:12;;;;;;;13.55;6.93;;;6.50;99.90;;;;;;5067468;28;20105;-72
2023/03/29 05:34:38;;;;;;;12.20;6.60;;;6.60;99.90;;;;;;5050825;28;20052;-71
2023/03/29 05:37:04;;;;;;;13.98;6.68;;;6.60;99.90;;;;;;5052414;28;20481;-72
2023/03/29 05:39:32;;;;;;;13.80;7.70;;;6.60;99.90;;;;;;5047496;28;20040;-72
2023/03/29 05:41:58;;;;;;;12.35;7.28;;;6.60;99.90;;;;;;5052527;28;20041;-72
2023/03/29 05:44:24;;;;;;;14.13;7.50;;;6.60;99.90;;;;;;5043406;28;20122;-72
2023/03/29 05:46:50;;;;;;;12.60;7.47;;;6.60;99.90;;;;;;5071611;28;20495;-71
2023/03/29 05:49:16;;;;;;;12.85;7.00;;;6.50;99.90;;;;;;5071207;28;20492;-72
2023/03/29 05:51:44;;;;;;;12.10;7.00;;;6.60;99.90;;;;;;5072059;28;20050;-72
2023/03/29 05:54:10;;;;;;;14.20;7.18;;;6.50;99.90;;;;;;5042103;28;20063;-72
2023/03/29 05:56:36;;;;;;;9.98;6.45;;;6.50;99.90;;;;;;5053339;28;20033;-71
2023/03/29 05:59:02;;;;;;;12.30;6.70;;;6.60;99.90;;;;;;5070951;28;20044;-72
2023/03/29 06:01:28;;;;;;;11.88;6.68;;;6.70;99.90;;;;;;5053429;28;20131;-72
2023/03/29 06:03:54;;;;;;;12.90;7.13;;;6.60;99.90;;;;;;5072331;28;20051;-72
2023/03/29 06:06:20;;;;;;;13.32;6.70;;;6.60;99.90;;;;;;5049356;28;20041;-72
2023/03/29 06:08:46;;;;;;;12.15;6.45;;;6.60;99.90;;;;;;5051646;28;20382;-72
2023/03/29 06:11:13;;;;;;;12.10;6.75;;;6.70;99.90;;;;;;5049743;28;20482;-72
2023/03/29 06:13:38;;;;;;;15.63;6.72;;;6.60;99.90;;;;;;5051567;28;20086;-72
2023/03/29 06:16:09;;;;;;;12.38;6.90;;;6.50;99.90;;;;;;5070270;28;20049;-71
2023/03/29 06:18:35;;;;;;;15.23;6.85;;;6.60;99.90;;;;;;5072014;28;20397;-71
2023/03/29 06:21:01;;;;;;;14.63;7.53;;;6.50;99.90;;;;;;5067255;28;20055;-71
2023/03/29 06:23:27;;;;;;;12.50;7.25;;;6.50;99.90;;;;;;5054150;28;20226;-72
2023/03/29 06:25:54;;;;;;;11.68;6.57;;;6.50;99.90;;;;;;5046902;28;20132;-72
2023/03/29 06:28:20;;;;;;;12.60;7.22;;;6.50;99.90;;;;;;5036669;28;20077;-72
2023/03/29 06:30:46;;;;;;;12.38;7.47;;;6.50;99.90;;;;;;5040289;28;20131;-72
2023/03/29 06:33:13;;;;;;;12.98;7.80;;;6.50;99.90;;;;;;5069808;28;20182;-72
2023/03/29 06:35:42;;;;;;;11.98;6.85;;;6.50;99.90;;;;;;5041965;28;20048;-72
2023/03/29 06:38:08;;;;;;;14.45;7.25;;;6.50;99.90;;;;;;5082587;28;20059;-71
2023/03/29 06:40:36;;;;;;;13.18;7.70;;;6.50;99.90;;;;;;5075979;28;20044;-72
2023/03/29 06:43:01;;;;;;;10.10;6.40;;;6.60;99.90;;;;;;5060853;28;20041;-71
2023/03/29 06:45:30;;;;;;;12.13;7.40;;;6.60;99.90;;;;;;5054747;28;20048;-71
2023/03/29 06:47:55;;;;;;;11.77;7.10;;;6.60;99.90;;;;;;5070722;28;20051;-72
2023/03/29 06:50:22;;;;;;;11.13;6.70;;;6.70;99.90;;;;;;5051871;28;20045;-72
2023/03/29 06:52:48;;;;;;;15.60;7.25;;;6.80;99.90;;;;;;5049932;28;20037;-71
2023/03/29 06:55:14;;;;;;;10.98;7.38;;;6.70;99.90;;;;;;5039963;28;20087;-71
2023/03/29 06:57:41;;;;;;;14.27;7.00;;;6.70;99.90;;;;;;5037592;28;20086;-72
2023/03/29 07:00:14;;;;;;;13.68;7.78;;;6.80;99.90;;;;;;5065322;28;20411;-72
2023/03/29 07:02:40;;;;;;;12.32;7.35;;;6.80;99.90;;;;;;5066664;28;20149;-71
2023/03/29 07:05:12;;;;;;;12.70;7.32;;;6.80;99.90;;;;;;5068650;28;20048;-72
2023/03/29 07:07:59;;;;;;;11.98;7.65;;;6.80;99.90;;;;;;5053121;28;20052;-72
2023/03/29 07:10:33;;;;;;;12.68;7.45;;;6.80;99.90;;;;;;5069792;28;20115;-71
2023/03/29 07:12:59;;;;;;;10.95;6.25;;;6.80;99.90;;;;;;5059045;28;20091;-72
2023/03/29 07:15:27;;;;;;;11.13;6.95;;;6.80;99.90;;;;;;5066979;28;20032;-72
2023/03/29 07:17:53;;;;;;;14.13;7.15;;;6.80;99.90;;;;;;5073258;28;20031;-72
2023/03/29 07:20:21;;;;;;;11.30;7.05;;;6.80;99.90;;;;;;5069662;28;20098;-71
2023/03/29 07:22:47;;;;;;;11.48;6.13;;;6.90;99.90;;;;;;5051387;28;20178;-71
2023/03/29 07:25:15;;;;;;;10.48;6.65;;;6.80;99.90;;;;;;5053784;28;20036;-72
2023/03/29 07:27:41;;;;;;;12.50;7.03;;;6.80;99.90;;;;;;5073828;28;20025;-72
2023/03/29 07:30:10;;;;;;;15.02;6.90;;;6.90;99.90;;;;;;5051964;28;20083;-72
2023/03/29 07:32:37;;;;;;;11.25;6.57;;;6.90;99.90;;;;;;5055465;28;20040;-72
2023/03/29 07:35:04;;;;;;;12.57;7.28;;;7.00;99.90;;;;;;5068896;28;20504;-72
2023/03/29 07:37:31;;;;;;;11.65;7.03;;;7.00;99.90;;;;;;5053578;28;20070;-71
2023/03/29 07:39:58;;;;;;;12.27;7.28;;;7.00;99.90;;;;;;5052197;28;20161;-72
2023/03/29 07:42:24;;;;;;;11.10;6.43;;;7.10;99.90;;;;;;5062973;28;20081;-71
2023/03/29 07:44:50;;;;;;;12.70;7.15;;;7.10;99.90;;;;;;5041025;28;20546;-71
2023/03/29 07:47:15;;;;;;;12.98;6.75;;;7.10;99.90;;;;;;5068690;28;20093;-71
2023/03/29 07:49:41;;;;;;;11.25;6.35;;;7.10;99.90;;;;;;5053140;28;20083;-71
2023/03/29 07:52:07;;;;;;;9.93;6.50;;;7.20;99.90;;;;;;5054853;28;20078;-72
2023/03/29 07:54:33;;;;;;;11.50;6.57;;;7.20;99.90;;;;;;5069406;28;20507;-72
2023/03/29 07:56:59;;;;;;;10.18;6.47;;;7.20;99.90;;;;;;5069633;28;20032;-72
2023/03/29 07:59:26;;;;;;;12.07;6.25;;;7.20;99.90;;;;;;5055448;28;20457;-71
2023/03/29 08:01:52;;;;;;;10.73;7.32;;;7.30;99.90;;;;;;5067034;28;20040;-72
2023/03/29 08:04:17;;;;;;;12.85;7.22;;;7.30;99.90;;;;;;5052828;28;20518;-71
2023/03/29 08:06:43;;;;;;;11.15;6.47;;;7.30;99.90;;;;;;5049970;28;20041;-72
2023/03/29 08:09:08;;;;;;;11.10;6.30;;;7.30;99.90;;;;;;5049482;28;20036;-71
2023/03/29 08:11:34;;;;;;;11.48;7.13;;;7.30;99.90;;;;;;5051519;28;20040;-72
2023/03/29 08:14:00;;;;;;;9.93;6.22;;;7.30;99.90;;;;;;5081696;28;20388;-72
2023/03/29 08:16:25;;;;;;;12.05;6.68;;;7.30;99.90;;;;;;5067742;28;20048;-72
2023/03/29 08:18:51;;;;;;;12.32;6.25;;;7.50;99.90;;;;;;5065056;28;20141;-72
2023/03/29 08:21:17;;;;;;;10.63;6.38;;;7.50;99.90;;;;;;5049838;28;20033;-71
2023/03/29 08:23:42;;;;;;;10.77;6.05;;;7.50;99.90;;;;;;5063040;28;20124;-71
2023/03/29 08:26:08;;;;;;;11.93;6.10;;;7.60;99.90;;;;;;5054551;28;20117;-72
2023/03/29 08:28:34;;;;;;;11.75;6.60;;;7.70;99.90;;;;;;5067324;28;20059;-71
2023/03/29 08:30:59;;;;;;;14.27;6.28;;;7.70;99.90;;;;;;5052494;28;20041;-72
2023/03/29 08:33:25;;;;;;;11.93;5.95;;;7.60;99.90;;;;;;5081870;28;20072;-71
2023/03/29 08:35:51;;;;;;;12.75;7.47;;;7.70;99.90;;;;;;5055102;28;20481;-72
2023/03/29 08:38:16;;;;;;;12.45;6.40;;;7.70;99.90;;;;;;5065648;28;20098;-72
2023/03/29 08:40:42;;;;;;;10.73;5.70;;;7.80;99.90;;;;;;5051965;28;20128;-71
2023/03/29 08:43:30;;;;;;;10.20;5.72;;;7.80;99.90;;;;;;5054663;28;20059;-71
2023/03/29 08:46:07;;;;;;;10.95;6.13;;;7.90;99.90;;;;;;5042286;28;20071;-72
2023/03/29 08:48:41;;;;;;;10.68;6.18;;;7.90;99.90;;;;;;5062747;28;20086;-71
2023/03/29 08:51:26;;;;;;;13.43;6.68;;;7.90;99.90;;;;;;5048439;28;20059;-71
2023/03/29 08:54:05;;;;;;;10.60;5.90;;;8.00;99.90;;;;;;5054047;28;20048;-72
2023/03/29 08:56:34;;;;;;;16.00;6.63;;;8.10;99.90;;;;;;5061794;28;21149;-72
2023/03/29 08:59:01;;;;;;;10.23;5.63;;;8.10;99.90;;;;;;5051881;28;20049;-72
2023/03/29 09:01:32;;;;;;;11.23;6.43;;;8.20;99.90;;;;;;5070249;28;20040;-72
2023/03/29 09:04:15;;;;;;;12.25;6.88;;;8.30;99.90;;;;;;5038619;28;20048;-71
2023/03/29 09:06:40;;;;;;;10.38;5.65;;;8.30;99.90;;;;;;5050378;28;20502;-72
2023/03/29 09:09:15;;;;;;;10.15;5.72;;;8.40;99.90;;;;;;5054565;28;20064;-72
2023/03/29 09:12:04;;;;;;;10.07;5.10;;;8.50;99.90;;;;;;5072027;28;20386;-72
2023/03/29 09:14:59;;;;;;;10.13;5.28;;;8.70;99.90;;;;;;5051379;28;20538;-72
2023/03/29 09:17:39;;;;;;;11.50;6.13;;;8.60;99.90;;;;;;5070567;28;20044;-71
2023/03/29 09:20:30;;;;;;;12.52;6.10;;;8.60;99.90;;;;;;5070325;28;20098;-71
2023/03/29 09:23:13;;;;;;;11.05;5.15;;;8.60;99.90;;;;;;5051727;28;20040;-72
2023/03/29 09:26:05;;;;;;;11.75;6.88;;;8.70;99.90;;;;;;5044431;28;20072;-72
2023/03/29 09:28:40;;;;;;;12.90;7.13;;;8.70;99.90;;;;;;5055814;28;20102;-72
2023/03/29 09:31:17;;;;;;;12.02;6.60;;;8.70;99.90;;;;;;5062585;28;20039;-72
2023/03/29 09:34:10;;;;;;;13.23;5.90;;;8.80;99.90;;;;;;5037122;28;20090;-72
2023/03/29 09:36:48;;;;;;;11.52;5.97;;;8.80;99.90;;;;;;5064832;28;20045;-72
2023/03/29 09:39:15;;;;;;;12.70;6.70;;;9.00;99.90;;;;;;5048795;28;20091;-72
2023/03/29 09:42:04;;;;;;;13.13;6.10;;;9.00;99.90;;;;;;5063683;28;20062;-72
2023/03/29 09:44:52;;;;;;;10.95;6.15;;;9.10;99.90;;;;;;5086108;28;20040;-72
2023/03/29 09:47:26;;;;;;;11.07;6.13;;;9.20;99.90;;;;;;5064184;28;20117;-71
2023/03/29 09:50:01;;;;;;;14.38;7.07;;;9.20;99.90;;;;;;5041659;28;20383;-72
2023/03/29 09:52:26;;;;;;;14.68;6.53;;;9.20;99.90;;;;;;5068769;28;20052;-72
2023/03/29 09:54:52;;;;;;;11.15;5.50;;;9.30;99.90;;;;;;5051546;28;20041;-72
2023/03/29 09:57:19;;;;;;;10.20;5.55;;;9.40;99.90;;;;;;5053449;28;20099;-71
2023/03/29 09:59:50;;;;;;;11.38;5.65;;;9.50;99.90;;;;;;5043458;28;20045;-72
2023/03/29 10:02:19;;;;;;;13.52;6.63;;;9.50;99.90;;;;;;5078485;28;20493;-72
2023/03/29 10:04:44;;;;;;;12.70;6.07;;;9.50;99.90;;;;;;5065345;28;20563;-71
2023/03/29 10:07:19;;;;;;;11.20;6.13;;;9.60;99.90;;;;;;5060591;28;20044;-72
2023/03/29 10:09:47;;;;;;;12.63;7.35;;;9.70;99.90;;;;;;5052609;28;20119;-72
2023/03/29 10:12:14;;;;;;;15.57;6.88;;;9.70;99.90;;;;;;5066900;28;20396;-71
2023/03/29 10:14:42;;;;;;;14.45;7.65;;;9.60;99.90;;;;;;5047900;28;20124;-72
2023/03/29 10:17:22;;;;;;;16.77;6.15;;;9.70;99.90;;;;;;5050950;28;20090;-72
2023/03/29 10:19:52;;;;;;;14.77;7.25;;;9.80;99.90;;;;;;5050682;28;20041;-72
2023/03/29 10:22:39;;;;;;;12.25;6.10;;;9.90;99.90;;;;;;5052139;28;20409;-72
2023/03/29 10:25:12;;;;;;;13.65;6.05;;;10.00;99.90;;;;;;5069161;28;20044;-71
2023/03/29 10:27:41;;;;;;;12.23;6.90;;;10.00;99.90;;;;;;5077828;28;20163;-72
2023/03/29 10:30:11;;;;;;;12.18;6.00;;;10.10;99.90;;;;;;5055248;28;20045;-72
2023/03/29 10:32:38;;;;;;;12.32;7.30;;;10.10;99.90;;;;;;5068312;28;20037;-72
2023/03/29 10:35:24;;;;;;;11.07;6.03;;;10.10;99.90;;;;;;5063709;28;20039;-71
2023/03/29 10:37:54;;;;;;;12.23;6.35;;;10.10;99.90;;;;;;5049833;28;20044;-72
2023/03/29 10:40:31;;;;;;;11.70;7.55;;;10.20;99.90;;;;;;5033902;28;20070;-72
2023/03/29 10:43:12;;;;;;;13.65;7.40;;;10.20;99.90;;;;;;5067958;28;20048;-71
2023/03/29 10:45:38;;;;;;;13.68;7.65;;;10.20;99.90;;;;;;5049411;28;20401;-72
2023/03/29 10:48:08;;;;;;;15.65;8.05;;;10.30;99.90;;;;;;5048305;28;20116;-72
2023/03/29 10:50:36;;;;;;;11.25;5.72;;;10.40;99.90;;;;;;5041413;28;20535;-71
2023/03/29 10:53:12;;;;;;;14.35;8.27;;;10.50;99.90;;;;;;5054112;28;20044;-71
2023/03/29 10:55:50;;;;;;;16.83;7.72;;;10.50;99.90;;;;;;5041022;28;20111;-72
2023/03/29 10:58:42;;;;;;;11.13;6.57;;;10.50;99.90;;;;;;5069789;28;20041;-72
2023/03/29 11:01:20;;;;;;;13.02;7.15;;;10.70;99.90;;;;;;5055614;28;20052;-71
2023/03/29 11:04:15;;;;;;;13.63;8.23;;;10.80;99.90;;;;;;5053282;28;20037;-72
2023/03/29 11:06:51;;;;;;;15.80;9.25;;;10.70;99.90;;;;;;5066515;28;20061;-72
2023/03/29 11:09:42;;;;;;;12.57;8.40;;;10.80;99.90;;;;;;5065920;28;20404;-71
2023/03/29 11:12:26;;;;;;;14.00;8.68;;;11.00;99.90;;;;;;5053197;28;20037;-72
2023/03/29 11:15:13;;;;;;;15.25;8.02;;;11.10;99.90;;;;;;5099538;28;20060;-72
2023/03/29 11:18:02;;;;;;;11.50;6.57;;;11.20;99.90;;;;;;5072404;28;20489;-72
2023/03/29 11:20:45;;;;;;;12.40;7.07;;;11.30;99.90;;;;;;5054262;28;20059;-72
2023/03/29 11:23:40;;;;;;;13.90;7.05;;;11.40;99.90;;;;;;5037863;28;20047;-72
2023/03/29 11:26:18;;;;;;;12.73;7.32;;;11.40;99.90;;;;;;5071038;28;20036;-72
2023/03/29 11:28:56;;;;;;;17.48;8.95;;;11.50;99.90;;;;;;5042853;28;20038;-72
2023/03/29 11:31:32;;;;;;;14.50;8.32;;;11.50;99.90;;;;;;5053995;28;20047;-72
2023/03/29 11:34:23;;;;;;;14.95;7.18;;;11.60;99.90;;;;;;5037835;28;20573;-72
2023/03/29 11:37:03;;;;;;;12.27;5.35;;;11.60;99.90;;;;;;5059437;28;20029;-71
2023/03/29 11:39:52;;;;;;;12.68;7.63;;;11.70;99.90;;;;;;5068760;28;20044;-71
2023/03/29 11:42:30;;;;;;;12.90;6.10;;;11.70;99.90;;;;;;5052736;28;20041;-72
2023/03/29 11:44:59;;;;;;;13.32;7.40;;;11.80;99.90;;;;;;5065523;28;20033;-71
2023/03/29 11:47:32;;;;;;;10.05;5.90;;;11.80;99.90;;;;;;5056167;28;20090;-71
2023/03/29 11:50:19;;;;;;;12.30;7.68;;;11.80;99.90;;;;;;5041096;28;20045;-72
2023/03/29 11:52:55;;;;;;;13.15;8.25;;;11.80;99.90;;;;;;5055352;28;20079;-72
2023/03/29 11:55:26;;;;;;;14.70;8.38;;;11.90;99.90;;;;;;5073273;28;20032;-72
2023/03/29 11:58:01;;;;;;;13.75;7.93;;;12.00;99.90;;;;;;5062043;28;20041;-71
2023/03/29 12:00:31;;;;;;;11.07;6.97;;;12.10;99.90;;;;;;5069763;28;20040;-71
2023/03/29 12:03:09;;;;;;;14.50;7.15;;;12.20;99.90;;;;;;5069956;28;20048;-71
2023/03/29 12:05:43;;;;;;;11.52;7.13;;;12.30;99.90;;;;;;5064147;28;20489;-71
2023/03/29 12:08:15;;;;;;;13.60;7.28;;;12.30;99.90;;;;;;5037306;28;20029;-71
2023/03/29 12:10:51;;;;;;;13.45;7.65;;;12.20;99.90;;;;;;5055897;28;20041;-72
2023/03/29 12:13:27;;;;;;;11.95;8.15;;;12.30;99.90;;;;;;5054693;28;20045;-72
2023/03/29 12:16:13;;;;;;;12.25;7.22;;;12.30;99.90;;;;;;5071326;28;20071;-72
2023/03/29 12:18:48;;;;;;;10.80;6.85;;;12.40;99.90;;;;;;5056548;28;20079;-72
2023/03/29 12:21:23;;;;;;;9.70;6.38;;;12.40;99.90;;;;;;5056442;28;20059;-72
2023/03/29 12:23:49;;;;;;;12.73;7.88;;;12.60;99.90;;;;;;5065897;28;20080;-72
2023/03/29 12:26:47;;;;;;;12.30;7.30;;;12.60;99.90;;;;;;5070934;28;20044;-72
2023/03/29 12:29:54;;;;;;;10.85;5.22;;;12.80;99.90;;;;;;5055045;28;20061;-72
2023/03/29 12:32:48;;;;;;;11.68;6.57;;;13.00;99.90;;;;;;5066411;28;20091;-72
2023/03/29 12:35:29;;;;;;;8.80;5.68;;;13.00;99.90;;;;;;5049364;28;20063;-72
2023/03/29 12:38:15;;;;;;;10.68;6.90;;;13.00;99.90;;;;;;5067259;28;20047;-72
2023/03/29 12:40:43;;;;;;;11.75;6.03;;;12.90;99.90;;;;;;5045378;28;20566;-72
2023/03/29 12:43:42;;;;;;;9.55;5.57;;;13.00;99.90;;;;;;5057852;28;20032;-72
2023/03/29 12:46:24;;;;;;;10.05;6.00;;;13.10;99.90;;;;;;5051878;28;20032;-72
2023/03/29 12:49:04;;;;;;;10.65;6.13;;;13.10;99.90;;;;;;5044524;28;20037;-72
2023/03/29 12:51:34;;;;;;;12.63;6.20;;;13.00;99.90;;;;;;5051862;28;20049;-72
2023/03/29 12:54:15;;;;;;;9.95;6.25;;;13.20;99.90;;;;;;5068203;28;20169;-72
2023/03/29 12:56:55;;;;;;;9.80;5.65;;;13.20;99.90;;;;;;5066926;28;20055;-72
2023/03/29 12:59:36;;;;;;;10.32;4.93;;;13.20;99.90;;;;;;5053462;28;20067;-72
2023/03/29 13:02:19;;;;;;;11.48;5.50;;;13.30;99.90;;;;;;5036522;28;20040;-72
2023/03/29 13:04:53;;;;;;;9.88;5.10;;;13.30;99.90;;;;;;5059769;28;20041;-72
2023/03/29 13:07:22;;;;;;;11.43;5.78;;;13.30;99.90;;;;;;5066291;28;20041;-71
2023/03/29 13:09:52;;;;;;;10.30;5.47;;;13.20;99.90;;;;;;5049876;28;20047;-72